createdAt,value
2023-05-05T00:00:38.022Z,8.63
2023-05-05T00:02:40.813Z,8.03
2023-05-05T00:04:43.377Z,8.11
2023-05-05T00:06:45.784Z,8.45
2023-05-05T00:08:47.974Z,8.44
2023-05-05T00:10:51.799Z,8.23
2023-05-05T00:12:54.247Z,8.41
2023-05-05T00:14:56.531Z,8.33
2023-05-05T00:16:59.486Z,8.23
2023-05-05T00:19:01.968Z,7.97
2023-05-05T00:21:05.091Z,8.17
2023-05-05T00:23:07.736Z,8.05
2023-05-05T00:25:10.373Z,8.24
2023-05-05T00:27:12.648Z,8.22
2023-05-05T00:29:14.872Z,7.96
2023-05-05T00:31:17.380Z,7.85
2023-05-05T00:33:20.344Z,8.10
2023-05-05T00:35:22.813Z,8.10
2023-05-05T00:37:25.935Z,8.08
2023-05-05T00:39:28.285Z,7.64
2023-05-05T00:41:30.910Z,7.64
2023-05-05T00:43:33.811Z,7.39
2023-05-05T00:45:38.215Z,7.44
2023-05-05T00:47:43.939Z,7.31
2023-05-05T00:49:46.429Z,7.15
2023-05-05T00:51:49.169Z,7.29
2023-05-05T00:53:51.736Z,6.75
2023-05-05T00:55:53.956Z,7.07
2023-05-05T00:57:58.749Z,6.93
2023-05-05T01:00:03.107Z,7.35
2023-05-05T01:02:05.644Z,7.48
2023-05-05T01:04:08.291Z,6.93
2023-05-05T01:06:37.507Z,6.68
2023-05-05T01:09:15.201Z,6.73
2023-05-05T01:11:26.724Z,6.71
2023-05-05T01:13:48.127Z,7.04
2023-05-05T01:15:59.179Z,6.99
2023-05-05T01:18:30.990Z,7.46
2023-05-05T01:20:59.530Z,6.88
2023-05-05T01:23:07.352Z,6.95
2023-05-05T01:25:34.345Z,6.84
2023-05-05T01:27:50.380Z,7.59
2023-05-05T01:30:24.887Z,6.86
2023-05-05T01:32:30.396Z,7.24
2023-05-05T01:34:37.534Z,7.44
2023-05-05T01:36:42.509Z,7.50
2023-05-05T01:38:46.809Z,7.04
2023-05-05T01:40:55.018Z,6.93
2023-05-05T01:43:01.080Z,7.06
2023-05-05T01:45:06.873Z,7.38
2023-05-05T01:47:13.466Z,7.21
2023-05-05T01:49:17.211Z,7.30
2023-05-05T01:51:22.131Z,7.69
2023-05-05T01:53:25.878Z,7.05
2023-05-05T01:55:29.793Z,7.61
2023-05-05T01:57:33.633Z,7.42
2023-05-05T01:59:37.318Z,7.36
2023-05-05T02:01:46.275Z,7.02
2023-05-05T02:03:51.764Z,7.21
2023-05-05T02:05:55.087Z,7.22
2023-05-05T02:08:00.312Z,7.06
2023-05-05T02:10:05.601Z,6.62
2023-05-05T02:12:09.290Z,6.82
2023-05-05T02:14:12.762Z,6.93
2023-05-05T02:16:18.247Z,6.57
2023-05-05T02:18:23.248Z,6.51
2023-05-05T02:20:27.819Z,6.66
2023-05-05T02:22:31.727Z,6.64
2023-05-05T02:24:34.409Z,6.31
2023-05-05T02:26:40.239Z,6.79
2023-05-05T02:28:51.981Z,6.56
2023-05-05T02:30:59.772Z,6.16
2023-05-05T02:33:09.648Z,6.40
2023-05-05T02:35:19.410Z,6.63
2023-05-05T02:37:27.725Z,6.69
2023-05-05T02:39:37.390Z,6.43
2023-05-05T02:41:49.095Z,6.76
2023-05-05T02:44:03.951Z,6.82
2023-05-05T02:46:08.385Z,6.57
2023-05-05T02:48:13.484Z,6.94
2023-05-05T02:50:16.011Z,6.62
2023-05-05T02:52:27.229Z,6.91
2023-05-05T02:54:31.991Z,7.13
2023-05-05T02:56:51.926Z,7.31
2023-05-05T02:59:16.546Z,7.17
2023-05-05T03:01:52.848Z,7.24
2023-05-05T03:04:14.852Z,7.11
2023-05-05T03:06:27.512Z,7.51
2023-05-05T03:08:55.126Z,7.13
2023-05-05T03:11:15.089Z,7.34
2023-05-05T03:13:20.897Z,7.43
2023-05-05T03:15:28.492Z,7.41
2023-05-05T03:17:33.191Z,6.85
2023-05-05T03:19:38.311Z,7.30
2023-05-05T03:21:41.270Z,7.37
2023-05-05T03:23:43.671Z,7.22
2023-05-05T03:25:53.524Z,6.99
2023-05-05T03:28:09.290Z,7.45
2023-05-05T03:30:12.853Z,7.10
2023-05-05T03:32:24.050Z,7.28
2023-05-05T03:34:29.584Z,7.06
2023-05-05T03:36:33.491Z,6.81
2023-05-05T03:38:36.289Z,7.36
2023-05-05T03:40:44.049Z,7.17
2023-05-05T03:42:51.286Z,7.14
2023-05-05T03:44:54.311Z,7.06
2023-05-05T03:46:58.434Z,7.27
2023-05-05T03:49:01.527Z,7.39
2023-05-05T03:51:04.480Z,7.27
2023-05-05T03:53:09.160Z,7.05
2023-05-05T03:55:12.113Z,7.43
2023-05-05T03:57:14.702Z,7.11
2023-05-05T03:59:17.809Z,7.40
2023-05-05T04:01:20.879Z,7.02
2023-05-05T04:03:23.556Z,7.54
2023-05-05T04:05:26.551Z,7.51
2023-05-05T04:07:29.987Z,7.29
2023-05-05T04:09:32.427Z,7.36
2023-05-05T04:11:34.844Z,7.51
2023-05-05T04:13:38.062Z,7.70
2023-05-05T04:15:47.561Z,7.25
2023-05-05T04:17:51.752Z,7.79
2023-05-05T04:19:55.909Z,7.44
2023-05-05T04:21:58.448Z,7.52
2023-05-05T04:24:01.275Z,7.18
2023-05-05T04:26:03.912Z,7.32
2023-05-05T04:28:06.511Z,7.44
2023-05-05T04:30:10.103Z,7.53
2023-05-05T04:32:15.424Z,7.27
2023-05-05T04:34:19.279Z,7.17
2023-05-05T04:36:22.134Z,7.25
2023-05-05T04:38:25.089Z,7.59
2023-05-05T04:40:27.986Z,7.86
2023-05-05T04:42:32.900Z,8.00
2023-05-05T04:44:36.060Z,7.97
2023-05-05T04:46:39.202Z,7.85
2023-05-05T04:48:41.476Z,7.79
2023-05-05T04:50:43.717Z,7.78
2023-05-05T04:52:46.381Z,8.41
2023-05-05T04:54:49.031Z,7.89
2023-05-05T04:56:52.594Z,8.34
2023-05-05T04:58:55.469Z,8.22
2023-05-05T05:00:59.033Z,8.35
2023-05-05T05:03:01.972Z,8.71
2023-05-05T05:05:04.980Z,8.75
2023-05-05T05:07:07.762Z,8.87
2023-05-05T05:09:10.258Z,9.04
2023-05-05T05:11:13.485Z,9.07
2023-05-05T05:13:16.213Z,9.09
2023-05-05T05:15:19.028Z,9.43
2023-05-05T05:17:23.334Z,9.23
2023-05-05T05:19:25.653Z,9.12
2023-05-05T05:21:28.803Z,9.29
2023-05-05T05:23:31.712Z,9.68
2023-05-05T05:25:34.317Z,9.95
2023-05-05T05:27:36.885Z,9.90
2023-05-05T05:29:39.780Z,10.38
2023-05-05T05:31:44.618Z,10.23
2023-05-05T05:33:49.851Z,10.64
2023-05-05T05:35:55.304Z,10.51
2023-05-05T05:37:57.567Z,10.94
2023-05-05T05:40:00.710Z,10.70
2023-05-05T05:42:05.415Z,10.71
2023-05-05T05:44:08.196Z,11.00
2023-05-05T05:46:11.199Z,11.16
2023-05-05T05:48:15.001Z,11.41
2023-05-05T05:50:17.750Z,11.73
2023-05-05T05:52:20.842Z,11.82
2023-05-05T05:54:24.013Z,12.09
2023-05-05T05:56:29.200Z,12.73
2023-05-05T05:58:34.338Z,13.09
2023-05-05T06:00:36.727Z,13.09
2023-05-05T06:02:43.874Z,13.05
2023-05-05T06:04:50.385Z,12.84
2023-05-05T06:06:53.476Z,13.30
2023-05-05T06:08:55.808Z,13.13
2023-05-05T06:10:58.377Z,13.74
2023-05-05T06:13:00.967Z,13.81
2023-05-05T06:15:04.411Z,14.08
2023-05-05T06:17:06.676Z,14.44
2023-05-05T06:19:10.921Z,14.39
2023-05-05T06:21:14.305Z,15.03
2023-05-05T06:23:16.667Z,15.42
2023-05-05T06:25:24.442Z,15.88
2023-05-05T06:27:28.049Z,15.88
2023-05-05T06:29:30.662Z,16.45
2023-05-05T06:31:33.057Z,16.34
2023-05-05T06:33:35.987Z,16.70
2023-05-05T06:35:38.383Z,16.89
2023-05-05T06:37:40.756Z,17.09
2023-05-05T06:39:43.444Z,17.21
2023-05-05T06:41:45.754Z,17.21
2023-05-05T06:43:48.536Z,17.42
2023-05-05T06:45:51.076Z,17.51
2023-05-05T06:47:53.432Z,17.56
2023-05-05T06:49:55.761Z,17.62
2023-05-05T06:51:58.180Z,17.88
2023-05-05T06:54:00.572Z,17.82
2023-05-05T06:56:03.572Z,17.66
2023-05-05T06:58:06.146Z,17.91
2023-05-05T07:00:11.792Z,18.16
2023-05-05T07:02:14.450Z,17.81
2023-05-05T07:04:16.887Z,18.28
2023-05-05T07:06:20.054Z,18.52
2023-05-05T07:08:22.582Z,18.91
2023-05-05T07:10:26.812Z,18.96
2023-05-05T07:12:33.865Z,19.13
2023-05-05T07:14:36.795Z,19.07
2023-05-05T07:16:39.459Z,19.36
2023-05-05T07:18:41.874Z,19.62
2023-05-05T07:20:45.005Z,20.10
2023-05-05T07:22:47.673Z,19.95
2023-05-05T07:24:51.677Z,20.20
2023-05-05T07:26:54.118Z,20.48
2023-05-05T07:28:58.279Z,20.79
2023-05-05T07:31:00.703Z,20.94
2023-05-05T07:33:04.322Z,21.17
2023-05-05T07:35:07.488Z,20.95
2023-05-05T07:37:09.817Z,20.93
2023-05-05T07:39:15.442Z,20.86
2023-05-05T07:41:18.909Z,20.97
2023-05-05T07:43:21.716Z,20.50
2023-05-05T07:45:24.715Z,20.55
2023-05-05T07:47:27.227Z,20.67
2023-05-05T07:49:30.050Z,21.01
2023-05-05T07:51:34.497Z,21.02
2023-05-05T07:53:37.717Z,21.48
2023-05-05T07:55:40.219Z,21.45
2023-05-05T07:57:43.288Z,21.48
2023-05-05T07:59:45.991Z,21.84
2023-05-05T08:01:48.317Z,21.96
2023-05-05T08:03:50.851Z,22.06
2023-05-05T08:05:55.147Z,22.44
2023-05-05T08:07:57.559Z,22.41
2023-05-05T08:10:00.208Z,22.43
2023-05-05T08:12:03.106Z,22.75
2023-05-05T08:14:05.672Z,22.46
2023-05-05T08:16:08.462Z,22.12
2023-05-05T08:18:11.490Z,21.82
2023-05-05T08:20:14.717Z,22.08
2023-05-05T08:22:17.211Z,22.16
2023-05-05T08:24:19.728Z,21.85
2023-05-05T08:26:23.360Z,21.79
2023-05-05T08:28:25.647Z,21.95
2023-05-05T08:30:28.228Z,21.97
2023-05-05T08:32:30.693Z,22.39
2023-05-05T08:34:33.164Z,22.30
2023-05-05T08:36:36.061Z,22.36
2023-05-05T08:38:38.531Z,22.64
2023-05-05T08:40:41.811Z,23.17
2023-05-05T08:42:47.411Z,23.62
2023-05-05T08:44:50.413Z,24.04
2023-05-05T08:46:53.871Z,24.43
2023-05-05T08:48:57.300Z,24.64
2023-05-05T08:51:02.618Z,24.72
2023-05-05T08:53:17.424Z,24.53
2023-05-05T08:55:27.729Z,24.54
2023-05-05T08:58:03.501Z,24.98
2023-05-05T09:00:11.148Z,25.32
2023-05-05T09:02:15.346Z,25.23
2023-05-05T09:04:19.588Z,25.27
2023-05-05T09:06:23.926Z,25.55
2023-05-05T09:08:27.899Z,25.81
2023-05-05T09:10:31.256Z,25.84
2023-05-05T09:12:33.609Z,25.79
2023-05-05T09:14:36.556Z,25.20
2023-05-05T09:16:44.762Z,25.41
2023-05-05T09:18:47.582Z,25.12
2023-05-05T09:20:50.273Z,24.78
2023-05-05T09:22:53.647Z,24.45
2023-05-05T09:24:57.091Z,24.23
2023-05-05T09:27:01.403Z,24.09
2023-05-05T09:29:05.094Z,24.30
2023-05-05T09:31:16.165Z,23.84
2023-05-05T09:33:31.434Z,23.82
2023-05-05T09:35:53.927Z,24.12
2023-05-05T09:37:57.521Z,23.92
2023-05-05T09:40:03.928Z,24.15
2023-05-05T09:42:06.507Z,24.69
2023-05-05T09:44:09.906Z,25.20
2023-05-05T09:46:12.828Z,25.61
2023-05-05T09:48:47.794Z,25.32
2023-05-05T09:50:50.617Z,24.81
2023-05-05T09:53:03.879Z,25.17
2023-05-05T09:55:08.529Z,24.78
2023-05-05T09:57:27.753Z,24.10
2023-05-05T09:59:30.228Z,24.54
2023-05-05T10:01:32.704Z,24.84
2023-05-05T10:03:52.060Z,25.06
2023-05-05T10:05:56.777Z,25.20
2023-05-05T10:08:13.930Z,25.16
2023-05-05T10:10:18.795Z,24.88
2023-05-05T10:12:21.578Z,25.04
2023-05-05T10:14:26.228Z,25.26
2023-05-05T10:16:33.254Z,25.69
2023-05-05T10:18:36.063Z,26.20
2023-05-05T10:20:39.211Z,26.59
2023-05-05T10:22:52.694Z,26.45
2023-05-05T10:25:09.759Z,26.01
2023-05-05T10:27:20.410Z,26.26
2023-05-05T10:29:47.282Z,26.75
2023-05-05T10:32:18.817Z,26.04
2023-05-05T10:34:38.915Z,26.35
2023-05-05T10:36:42.081Z,26.53
2023-05-05T10:38:46.830Z,26.43
2023-05-05T10:40:50.787Z,26.23
2023-05-05T10:42:54.730Z,26.60
2023-05-05T10:44:57.207Z,26.99
2023-05-05T10:47:01.232Z,26.76
2023-05-05T10:49:16.582Z,26.66
2023-05-05T10:51:48.266Z,26.81
2023-05-05T10:54:06.664Z,26.92
2023-05-05T10:56:18.038Z,27.18
2023-05-05T10:58:43.720Z,27.82
2023-05-05T11:00:54.158Z,27.97
2023-05-05T11:03:18.742Z,28.05
2023-05-05T11:05:23.880Z,27.49
2023-05-05T11:07:28.093Z,27.56
2023-05-05T11:09:30.909Z,27.50
2023-05-05T11:12:10.213Z,27.66
2023-05-05T11:14:25.353Z,27.40
2023-05-05T11:16:50.934Z,27.26
2023-05-05T11:18:53.465Z,26.28
2023-05-05T11:20:58.837Z,26.81
2023-05-05T11:23:04.802Z,27.24
2023-05-05T11:25:44.836Z,27.05
2023-05-05T11:28:08.800Z,26.76
2023-05-05T11:30:12.379Z,26.71
2023-05-05T11:32:18.396Z,26.49
2023-05-05T11:34:28.574Z,26.38
2023-05-05T11:36:41.715Z,27.04
2023-05-05T11:38:49.841Z,27.40
2023-05-05T11:41:02.852Z,27.42
2023-05-05T11:43:07.777Z,27.61
2023-05-05T11:45:22.092Z,27.61
2023-05-05T11:47:27.455Z,27.35
2023-05-05T11:49:34.197Z,27.98
2023-05-05T11:51:38.824Z,28.04
2023-05-05T11:53:46.476Z,28.25
2023-05-05T11:55:49.052Z,28.19
2023-05-05T11:57:52.232Z,27.78
2023-05-05T11:59:55.875Z,28.19
2023-05-05T12:01:59.560Z,28.02
2023-05-05T12:04:02.462Z,28.50
2023-05-05T12:06:07.255Z,28.62
2023-05-05T12:08:10.669Z,28.66
2023-05-05T12:10:13.623Z,29.02
2023-05-05T12:12:17.559Z,29.33
2023-05-05T12:14:21.239Z,29.16
2023-05-05T12:16:24.292Z,29.60
2023-05-05T12:18:26.851Z,29.53
2023-05-05T12:20:32.301Z,29.56
2023-05-05T12:22:34.969Z,29.74
2023-05-05T12:24:38.116Z,29.80
2023-05-05T12:26:40.881Z,29.34
2023-05-05T12:28:46.928Z,28.34
2023-05-05T12:31:00.246Z,28.05
2023-05-05T12:33:07.817Z,28.54
2023-05-05T12:35:10.949Z,28.42
2023-05-05T12:37:13.776Z,28.90
2023-05-05T12:39:16.107Z,28.82
2023-05-05T12:41:20.214Z,28.84
2023-05-05T12:43:27.203Z,29.43
2023-05-05T12:45:29.860Z,29.32
2023-05-05T12:47:33.477Z,29.39
2023-05-05T12:49:50.421Z,29.24
2023-05-05T12:51:57.208Z,29.33
2023-05-05T12:54:03.881Z,29.26
2023-05-05T12:56:06.301Z,29.32
2023-05-05T12:58:08.943Z,29.71
2023-05-05T13:00:18.255Z,29.77
2023-05-05T13:02:21.297Z,29.99
2023-05-05T13:04:26.419Z,29.62
2023-05-05T13:06:28.711Z,29.29
2023-05-05T13:08:44.542Z,29.44
2023-05-05T13:10:59.568Z,28.18
2023-05-05T13:13:02.853Z,28.00
2023-05-05T13:15:06.389Z,27.41
2023-05-05T13:17:09.446Z,27.57
2023-05-05T13:19:12.322Z,27.98
2023-05-05T13:21:15.109Z,28.47
2023-05-05T13:23:17.319Z,28.75
2023-05-05T13:25:19.617Z,28.37
2023-05-05T13:27:22.637Z,28.68
2023-05-05T13:29:29.544Z,28.43
2023-05-05T13:31:33.840Z,28.51
2023-05-05T13:33:36.773Z,28.53
2023-05-05T13:35:39.104Z,28.37
2023-05-05T13:37:42.736Z,28.30
2023-05-05T13:39:45.487Z,28.71
2023-05-05T13:41:48.209Z,28.72
2023-05-05T13:43:51.734Z,28.86
2023-05-05T13:45:55.956Z,28.94
2023-05-05T13:48:03.403Z,29.00
2023-05-05T13:50:06.757Z,29.06
2023-05-05T13:52:09.243Z,28.98
2023-05-05T13:54:11.946Z,28.96
2023-05-05T13:56:14.496Z,28.98
2023-05-05T13:58:17.964Z,29.03
2023-05-05T14:00:20.769Z,28.99
2023-05-05T14:02:23.581Z,29.00
2023-05-05T14:04:26.186Z,28.98
2023-05-05T14:06:28.552Z,29.21
2023-05-05T14:08:31.066Z,28.99
2023-05-05T14:10:33.485Z,28.81
2023-05-05T14:12:36.129Z,28.50
2023-05-05T14:14:38.387Z,28.61
2023-05-05T14:16:41.321Z,28.49
2023-05-05T14:18:43.835Z,28.62
2023-05-05T14:20:46.087Z,28.66
2023-05-05T14:22:49.373Z,28.55
2023-05-05T14:24:52.050Z,28.48
2023-05-05T14:26:54.745Z,28.11
2023-05-05T14:28:57.356Z,28.41
2023-05-05T14:30:59.926Z,28.13
2023-05-05T14:33:02.327Z,28.29
2023-05-05T14:35:05.393Z,27.69
2023-05-05T14:37:09.193Z,27.98
2023-05-05T14:39:12.041Z,27.72
2023-05-05T14:41:14.606Z,27.54
2023-05-05T14:43:16.805Z,27.16
2023-05-05T14:45:19.165Z,27.71
2023-05-05T14:47:21.958Z,27.34
2023-05-05T14:49:24.481Z,27.70
2023-05-05T14:51:26.812Z,28.04
2023-05-05T14:53:29.148Z,28.03
2023-05-05T14:55:31.556Z,28.18
2023-05-05T14:57:33.980Z,27.99
2023-05-05T14:59:36.576Z,27.69
2023-05-05T15:01:39.087Z,27.47
2023-05-05T15:03:41.623Z,27.56
2023-05-05T15:05:44.213Z,27.42
2023-05-05T15:07:46.898Z,27.58
2023-05-05T15:09:49.533Z,27.89
2023-05-05T15:11:52.080Z,27.96
2023-05-05T15:13:54.663Z,27.62
2023-05-05T15:15:57.415Z,27.05
2023-05-05T15:18:00.112Z,27.45
2023-05-05T15:20:02.593Z,27.26
2023-05-05T15:22:05.533Z,27.25
2023-05-05T15:24:07.868Z,26.79
2023-05-05T15:26:10.449Z,26.83
2023-05-05T15:28:12.920Z,26.69
2023-05-05T15:30:16.068Z,26.54
2023-05-05T15:32:18.880Z,26.77
2023-05-05T15:34:21.682Z,26.68
2023-05-05T15:36:25.119Z,26.22
2023-05-05T15:38:29.381Z,25.97
2023-05-05T15:40:31.903Z,26.24
2023-05-05T15:42:34.768Z,26.12
2023-05-05T15:44:37.442Z,26.16
2023-05-05T15:46:40.003Z,26.10
2023-05-05T15:48:42.253Z,26.19
2023-05-05T15:50:44.749Z,25.74
2023-05-05T15:52:49.825Z,25.65
2023-05-05T15:54:53.112Z,25.53
2023-05-05T15:56:55.647Z,25.17
2023-05-05T15:58:58.337Z,24.86
2023-05-05T16:01:01.241Z,24.78
2023-05-05T16:03:03.906Z,24.64
2023-05-05T16:05:07.178Z,25.09
2023-05-05T16:07:09.877Z,24.82
2023-05-05T16:09:12.418Z,24.34
2023-05-05T16:11:15.811Z,24.22
2023-05-05T16:13:18.796Z,24.09
2023-05-05T16:15:21.872Z,23.79
2023-05-05T16:17:24.201Z,23.75
2023-05-05T16:19:30.122Z,23.66
2023-05-05T16:21:33.872Z,23.61
2023-05-05T16:23:36.177Z,23.05
2023-05-05T16:25:38.876Z,23.15
2023-05-05T16:27:41.101Z,23.09
2023-05-05T16:29:43.782Z,22.80
2023-05-05T16:31:46.301Z,22.70
2023-05-05T16:33:49.101Z,22.70
2023-05-05T16:35:51.536Z,22.59
2023-05-05T16:37:54.223Z,22.53
2023-05-05T16:39:56.495Z,22.60
2023-05-05T16:41:58.979Z,22.91
2023-05-05T16:44:02.171Z,22.56
2023-05-05T16:46:04.908Z,22.57
2023-05-05T16:48:09.056Z,22.34
2023-05-05T16:50:11.904Z,22.49
2023-05-05T16:52:15.226Z,22.62
2023-05-05T16:54:17.678Z,22.43
2023-05-05T16:56:20.301Z,22.49
2023-05-05T16:58:23.490Z,22.25
2023-05-05T17:00:26.002Z,22.09
2023-05-05T17:02:28.704Z,22.11
2023-05-05T17:04:31.248Z,21.93
2023-05-05T17:06:33.665Z,21.92
2023-05-05T17:08:36.019Z,21.45
2023-05-05T17:10:38.301Z,21.66
2023-05-05T17:12:41.217Z,21.31
2023-05-05T17:14:45.258Z,21.55
2023-05-05T17:16:48.074Z,21.58
2023-05-05T17:18:50.311Z,21.35
2023-05-05T17:20:52.745Z,21.43
2023-05-05T17:22:56.357Z,21.17
2023-05-05T17:24:59.198Z,20.97
2023-05-05T17:27:02.283Z,20.87
2023-05-05T17:29:04.722Z,20.77
2023-05-05T17:31:07.081Z,20.62
2023-05-05T17:33:09.796Z,20.45
2023-05-05T17:35:12.539Z,20.25
2023-05-05T17:37:14.960Z,20.23
2023-05-05T17:39:17.901Z,19.85
2023-05-05T17:41:20.430Z,19.74
2023-05-05T17:43:22.954Z,19.18
2023-05-05T17:45:25.618Z,19.02
2023-05-05T17:47:28.341Z,19.02
2023-05-05T17:49:31.157Z,18.75
2023-05-05T17:51:33.521Z,18.45
2023-05-05T17:53:36.168Z,18.64
2023-05-05T17:55:38.508Z,18.36
2023-05-05T17:57:40.950Z,18.33
2023-05-05T17:59:43.421Z,17.87
2023-05-05T18:01:46.162Z,18.33
2023-05-05T18:03:49.280Z,17.72
2023-05-05T18:05:51.851Z,17.61
2023-05-05T18:07:54.380Z,17.94
2023-05-05T18:09:57.287Z,17.58
2023-05-05T18:11:59.721Z,17.86
2023-05-05T18:14:02.314Z,17.58
2023-05-05T18:16:05.678Z,17.36
2023-05-05T18:18:08.390Z,17.32
2023-05-05T18:20:12.001Z,17.15
2023-05-05T18:22:15.277Z,17.15
2023-05-05T18:24:20.378Z,17.13
2023-05-05T18:26:23.433Z,16.95
2023-05-05T18:28:26.259Z,16.81
2023-05-05T18:30:29.066Z,16.98
2023-05-05T18:32:31.936Z,16.49
2023-05-05T18:34:35.312Z,16.80
2023-05-05T18:36:37.790Z,16.77
2023-05-05T18:38:40.626Z,16.52
2023-05-05T18:40:43.559Z,16.01
2023-05-05T18:42:46.598Z,16.20
2023-05-05T18:44:49.483Z,16.23
2023-05-05T18:46:52.044Z,16.34
2023-05-05T18:48:54.954Z,16.24
2023-05-05T18:51:04.551Z,15.83
2023-05-05T18:53:07.883Z,15.99
2023-05-05T18:55:10.818Z,15.95
2023-05-05T18:57:14.400Z,15.58
2023-05-05T18:59:17.304Z,15.82
2023-05-05T19:01:20.748Z,15.41
2023-05-05T19:03:23.659Z,15.43
2023-05-05T19:05:28.272Z,15.88
2023-05-05T19:07:35.485Z,15.12
2023-05-05T19:09:54.276Z,15.49
2023-05-05T19:11:57.108Z,15.20
2023-05-05T19:13:59.806Z,14.89
2023-05-05T19:16:02.975Z,15.02
2023-05-05T19:18:07.536Z,15.20
2023-05-05T19:20:10.723Z,15.13
2023-05-05T19:22:13.616Z,14.48
2023-05-05T19:24:16.433Z,14.84
2023-05-05T19:26:19.031Z,14.81
2023-05-05T19:28:22.072Z,14.78
2023-05-05T19:30:24.847Z,15.03
2023-05-05T19:32:27.899Z,14.63
2023-05-05T19:34:30.382Z,14.63
2023-05-05T19:36:34.069Z,14.84
2023-05-05T19:38:37.617Z,14.63
2023-05-05T19:40:41.388Z,14.76
2023-05-05T19:42:44.422Z,14.36
2023-05-05T19:44:47.411Z,14.56
2023-05-05T19:46:50.360Z,14.47
2023-05-05T19:48:53.230Z,14.52
2023-05-05T19:50:55.916Z,14.52
2023-05-05T19:52:58.499Z,14.32
2023-05-05T19:55:01.373Z,14.51
2023-05-05T19:57:04.387Z,14.50
2023-05-05T19:59:07.047Z,14.39
2023-05-05T20:01:10.404Z,14.54
2023-05-05T20:03:13.563Z,14.31
2023-05-05T20:05:17.913Z,14.02
2023-05-05T20:07:21.254Z,14.25
2023-05-05T20:09:23.738Z,14.15
2023-05-05T20:11:26.450Z,14.01
2023-05-05T20:13:28.988Z,14.16
2023-05-05T20:15:32.741Z,14.11
2023-05-05T20:17:35.757Z,14.27
2023-05-05T20:19:38.611Z,14.19
2023-05-05T20:21:41.412Z,13.49
2023-05-05T20:23:45.814Z,13.70
2023-05-05T20:25:48.404Z,13.56
2023-05-05T20:27:51.133Z,13.85
2023-05-05T20:29:53.917Z,13.65
2023-05-05T20:31:57.199Z,13.39
2023-05-05T20:33:59.750Z,13.38
2023-05-05T20:36:02.222Z,13.46
2023-05-05T20:38:05.018Z,13.68
2023-05-05T20:40:08.613Z,13.45
2023-05-05T20:42:11.329Z,13.25
2023-05-05T20:44:14.029Z,13.52
2023-05-05T20:46:17.166Z,13.70
2023-05-05T20:48:20.169Z,13.16
2023-05-05T20:50:23.468Z,13.72
2023-05-05T20:52:25.998Z,13.17
2023-05-05T20:54:34.679Z,12.93
2023-05-05T20:56:37.227Z,13.23
2023-05-05T20:58:39.550Z,13.28
2023-05-05T21:00:42.704Z,13.28
2023-05-05T21:02:45.463Z,13.28
2023-05-05T21:04:48.473Z,13.17
2023-05-05T21:06:50.964Z,13.13
2023-05-05T21:08:53.472Z,12.76
2023-05-05T21:10:56.328Z,13.18
2023-05-05T21:12:59.028Z,13.02
2023-05-05T21:15:01.819Z,12.67
2023-05-05T21:17:04.243Z,12.65
2023-05-05T21:19:06.951Z,12.79
2023-05-05T21:21:09.452Z,12.66
2023-05-05T21:23:12.035Z,12.80
2023-05-05T21:25:20.263Z,12.54
2023-05-05T21:27:23.182Z,12.19
2023-05-05T21:29:26.293Z,12.29
2023-05-05T21:31:29.307Z,12.39
2023-05-05T21:33:31.782Z,12.03
2023-05-05T21:35:34.376Z,12.29
2023-05-05T21:37:39.844Z,12.19
2023-05-05T21:39:42.828Z,12.36
2023-05-05T21:41:45.564Z,12.37
2023-05-05T21:43:47.976Z,12.14
2023-05-05T21:46:02.541Z,12.17
2023-05-05T21:48:06.589Z,12.57
2023-05-05T21:50:10.499Z,12.28
2023-05-05T21:52:13.258Z,12.37
2023-05-05T21:54:16.084Z,12.42
2023-05-05T21:56:18.276Z,12.34
2023-05-05T21:58:21.071Z,12.03
2023-05-05T22:00:24.078Z,12.24
2023-05-05T22:02:26.590Z,11.91
2023-05-05T22:04:29.662Z,12.01
2023-05-05T22:06:50.500Z,12.10
2023-05-05T22:08:53.311Z,12.11
2023-05-05T22:10:56.104Z,12.18
2023-05-05T22:12:58.525Z,12.04
2023-05-05T22:15:01.360Z,12.19
2023-05-05T22:17:03.842Z,12.10
2023-05-05T22:19:07.315Z,11.95
2023-05-05T22:21:10.266Z,11.41
2023-05-05T22:23:14.344Z,11.29
2023-05-05T22:25:17.162Z,11.80
2023-05-05T22:27:19.488Z,11.64
2023-05-05T22:29:21.794Z,11.27
2023-05-05T22:31:24.568Z,11.69
2023-05-05T22:33:27.538Z,11.75
2023-05-05T22:35:30.020Z,11.68
2023-05-05T22:37:32.459Z,11.66
2023-05-05T22:39:34.949Z,11.57
2023-05-05T22:41:37.884Z,11.35
2023-05-05T22:43:40.391Z,11.65
2023-05-05T22:45:43.917Z,11.34
2023-05-05T22:47:46.573Z,11.32
2023-05-05T22:49:49.041Z,11.27
2023-05-05T22:51:52.227Z,11.21
2023-05-05T22:53:54.754Z,11.02
2023-05-05T22:55:58.693Z,11.07
2023-05-05T22:58:01.234Z,11.31
2023-05-05T23:00:05.297Z,11.15
2023-05-05T23:02:08.147Z,11.12
2023-05-05T23:04:11.002Z,11.26
2023-05-05T23:06:13.552Z,10.67
2023-05-05T23:08:15.897Z,11.18
2023-05-05T23:10:18.608Z,10.85
2023-05-05T23:12:21.154Z,10.65
2023-05-05T23:14:23.404Z,10.52
2023-05-05T23:16:26.165Z,11.01
2023-05-05T23:18:28.577Z,10.95
2023-05-05T23:20:31.064Z,10.93
2023-05-05T23:22:33.364Z,10.75
2023-05-05T23:24:35.839Z,10.38
2023-05-05T23:26:38.139Z,10.03
2023-05-05T23:28:40.551Z,10.39
2023-05-05T23:30:43.366Z,10.27
2023-05-05T23:32:46.258Z,10.41
2023-05-05T23:34:48.865Z,10.23
2023-05-05T23:36:51.346Z,10.42
2023-05-05T23:41:10.558Z,10.14
2023-05-05T23:43:13.249Z,10.26
2023-05-05T23:45:17.532Z,10.09
2023-05-05T23:47:21.360Z,9.57
2023-05-05T23:49:25.236Z,9.80
2023-05-05T23:51:27.621Z,10.01
2023-05-05T23:53:30.396Z,10.30
2023-05-05T23:55:33.025Z,10.06
2023-05-05T23:57:36.389Z,10.11
2023-05-05T23:59:39.637Z,9.93
